Genesis Patriot — WDG9346 — position and weather

sailwx.info

Track history (hours):
 
Tides and Currents Weather Stations Pressure Air Temp Water Temp Dewpoint Dewpoint Depression Visibility Wind Speed Wind Dir Waves Ship Positions

Genesis Patriot

Owner: Genesis Marine, LLC, Houston, TX. More information available from US FCC via Universal Licensing System and Coast Guard Vessel Documentation Center.

Last reported at 2017-Oct-22 11:16 UTC. Time now 2017-Oct-22 19:14 UTC.
Position N 26°12' W 079°54'.

Length 171 m; draft 8.4 m.

Type: . MMSI: 338708000.

Date/timePositionNaut miles runAvg speedWind from/ knotsBaromVisibWave heightAir tempDewpointWater temp
2017-Oct-22 11:16N 26°12' W 079°54'311.2
2017-Oct-22 10:59N 26°09' W 079°54'611.7
2017-Oct-22 10:30N 26°03' W 079°55'510.9
2017-Oct-22 10:00N 25°58' W 079°55'510.7
2017-Oct-22 09:30N 25°53' W 079°56'510.6
2017-Oct-22 09:00N 25°47' W 079°56'510.9
2017-Oct-22 08:30N 25°42' W 079°57'510.5
2017-Oct-22 08:00N 25°37' W 079°58'510.4
2017-Oct-22 07:29N 25°32' W 079°59'  
2017-Oct-17 11:02N 29°33' W 094°55'0 8.8
2017-Oct-17 11:00N 29°33' W 094°55'4 9.0
2017-Oct-17 10:30N 29°37' W 094°57'4 8.8
2017-Oct-17 10:00N 29°41' W 094°59'4 7.5
2017-Oct-17 09:29N 29°44' W 095°02'  
2017-Oct-14 08:59N 29°44' W 095°03'2 2.3
2017-Oct-14 08:10N 29°43' W 095°01'2 8.3
2017-Oct-14 07:55N 29°42' W 094°59'7 9.9
2017-Oct-14 07:13N 29°35' W 094°56'210.2
2017-Oct-14 07:00N 29°33' W 094°55'  
Track history (hours):
 
Tides and Currents Weather Stations Pressure Air Temp Water Temp Dewpoint Dewpoint Depression Visibility Wind Speed Wind Dir Waves Ship Positions

Genesis Patriot

Owner: Genesis Marine, LLC, Houston, TX. More information available from US FCC via Universal Licensing System and Coast Guard Vessel Documentation Center.

Last reported at 2017-Oct-22 11:16 UTC. Time now 2017-Oct-22 19:14 UTC.
Position N 26°12' W 079°54'.

Length 171 m; draft 8.4 m.

Type: . MMSI: 338708000.

Date/timePositionNaut miles runAvg speedWind from/ knotsBaromVisibWave heightAir tempDewpointWater temp
2017-Oct-22 11:16N 26°12' W 079°54'311.2
2017-Oct-22 10:59N 26°09' W 079°54'611.7
2017-Oct-22 10:30N 26°03' W 079°55'510.9
2017-Oct-22 10:00N 25°58' W 079°55'510.7
2017-Oct-22 09:30N 25°53' W 079°56'510.6
2017-Oct-22 09:00N 25°47' W 079°56'510.9
2017-Oct-22 08:30N 25°42' W 079°57'510.5
2017-Oct-22 08:00N 25°37' W 079°58'510.4
2017-Oct-22 07:29N 25°32' W 079°59'  
2017-Oct-17 11:02N 29°33' W 094°55'0 8.8
2017-Oct-17 11:00N 29°33' W 094°55'4 9.0
2017-Oct-17 10:30N 29°37' W 094°57'4 8.8
2017-Oct-17 10:00N 29°41' W 094°59'4 7.5
2017-Oct-17 09:29N 29°44' W 095°02'  
2017-Oct-14 08:59N 29°44' W 095°03'2 2.3
2017-Oct-14 08:10N 29°43' W 095°01'2 8.3
2017-Oct-14 07:55N 29°42' W 094°59'7 9.9
2017-Oct-14 07:13N 29°35' W 094°56'210.2
2017-Oct-14 07:00N 29°33' W 094°55'  

Dump ship's entire track history